Meknes, Morocco
Current Conditions -  °F | °C
As of 11:00 PM on Monday 24 Nov 2014 (Local Time) from GMFM Reporting Station
Broken Clouds Broken Clouds  
Wind Chill: 55°   Ceiling: 2000
Heat Index: 55°   Visibility: 6mi
Dew Point: 46°   Wind: 3mph
Humidity: 72%   Direction: 180°S
Pressure: 30.12"   Gusts: NA
Location:  33.9°N, 5.56°W
Report Text: GMFM 242200Z 18003KT 9999 FEW013 BKN020 13/08 Q1020 NOSIG
Loading
Personal Weather Stations






























Interactive Weather Map New forecast layout! Learn more

10-Day Weather Forecast

Advertisements
Track Severe Weather on mobile